Scorpio — WDF2159 — position and weather

sailwx.info

Track history (hours):
 
Tides and Currents Weather Stations Pressure Air Temp Water Temp Dewpoint Dewpoint Depression Visibility Wind Speed Wind Dir Waves Ship Positions

Scorpio

Owner: San Francisco Bay Area Water Emergency Transportation Authority, San Francisco, CA. More information available from US FCC via Universal Licensing System and Coast Guard Vessel Documentation Center.

Last reported at 2018-Jun-15 18:47 UTC. Time now 2018-Jun-19 21:42 UTC.
Position N 37°46' W 122°18'.

Length 35 m.

Type: Ship (hazmat cat A). MMSI: 367425520.

Date/timePositionNaut miles runAvg speedWind from/ knotsBaromVisibWave heightAir tempDewpointWater temp
2018-Jun-15 18:47N 37°46' W 122°18'0 0.1
2018-Jun-15 18:30N 37°46' W 122°18'611.5
2018-Jun-15 18:00N 37°49' W 122°25'0 0.0
2018-Jun-15 17:30N 37°49' W 122°25'0 0.0
2018-Jun-15 17:00N 37°49' W 122°25'1 2.4
2018-Jun-15 16:30N 37°48' W 122°23'1222.7
2018-Jun-15 15:58N 38°00' W 122°24'913.4
2018-Jun-15 15:19N 38°06' W 122°16'412.2
2018-Jun-15 15:00N 38°03' W 122°19'1021.1
2018-Jun-15 14:31N 37°54' W 122°25'611.6
2018-Jun-15 14:00N 37°48' W 122°24'1322.8
2018-Jun-15 13:26N 38°01' W 122°22'7 9.7
2018-Jun-15 12:43N 38°06' W 122°16'0 0.0
2018-Jun-14 19:38N 38°06' W 122°16'1 9.3
2018-Jun-14 19:30N 38°05' W 122°15'1121.7
2018-Jun-14 19:00N 37°58' W 122°26'918.1
2018-Jun-14 18:29N 37°49' W 122°25'1 2.0
2018-Jun-14 18:01N 37°49' W 122°24'1219.4
2018-Jun-14 17:24N 38°01' W 122°23'818.1
2018-Jun-14 16:59N 38°05' W 122°15'1 0.1
2018-Jun-14 01:45N 38°06' W 122°16'1 3.2
2018-Jun-14 01:28N 38°05' W 122°15'916.9
2018-Jun-14 00:58N 38°00' W 122°24'1022.1
2018-Jun-14 00:30N 37°50' W 122°24'1 2.9
2018-Jun-14 00:00N 37°51' W 122°25'1221.6
2018-Jun-13 23:27N 38°03' W 122°20'5 5.5
2018-Jun-13 22:37N 38°06' W 122°16'1 8.8
2018-Jun-13 22:30N 38°05' W 122°15'1120.8
2018-Jun-13 21:58N 37°58' W 122°26'1018.5
2018-Jun-13 21:25N 37°48' W 122°24'0 0.0
2018-Jun-13 20:55N 37°48' W 122°24'0 0.0
2018-Jun-13 20:28N 37°48' W 122°24'612.1
2018-Jun-13 20:00N 37°53' W 122°26'1019.1
2018-Jun-13 19:29N 38°02' W 122°20'5 3.8
2018-Jun-13 18:11N 38°06' W 122°16'210.0
2018-Jun-13 17:57N 38°04' W 122°16'1023.4
2018-Jun-13 17:30N 37°57' W 122°26'917.6
2018-Jun-13 17:00N 37°48' W 122°24'3 5.9
2018-Jun-13 16:30N 37°46' W 122°22'611.4
2018-Jun-13 16:00N 37°40' W 122°23'917.4
2018-Jun-13 15:30N 37°48' W 122°18'1 2.1
2018-Jun-13 15:00N 37°48' W 122°19'814.7
2018-Jun-13 14:26N 37°40' W 122°23'614.7
2018-Jun-13 14:00N 37°46' W 122°21'3 6.1
2018-Jun-13 13:30N 37°48' W 122°17'510.4
2018-Jun-13 13:00N 37°43' W 122°21'4 5.8
2018-Jun-13 12:23N 37°40' W 122°23'0 0.0
2018-Jun-13 03:26N 37°40' W 122°22'819.8
2018-Jun-13 03:00N 37°48' W 122°19'1 1.9
2018-Jun-13 02:31N 37°48' W 122°20'816.6
2018-Jun-13 02:00N 37°40' W 122°23'714.0
2018-Jun-13 01:29N 37°44' W 122°15'715.1
2018-Jun-13 01:00N 37°48' W 122°24'5 9.2
2018-Jun-13 00:30N 37°47' W 122°18'1 1.4
2018-Jun-13 00:00N 37°48' W 122°17'815.2
2018-Jun-12 23:30N 37°41' W 122°21'2 3.0
2018-Jun-12 23:00N 37°40' W 122°23'816.1
2018-Jun-12 22:30N 37°48' W 122°24'0 0.9
2018-Jun-12 22:00N 37°48' W 122°24'0 0.0
2018-Jun-12 21:30N 37°48' W 122°24'0 0.0
2018-Jun-12 21:00N 37°48' W 122°24'0 0.0
2018-Jun-12 20:30N 37°48' W 122°24'0 0.0
2018-Jun-12 20:00N 37°48' W 122°24'0 0.0
2018-Jun-12 19:29N 37°48' W 122°24'0 0.0
2018-Jun-12 19:00N 37°48' W 122°24'0 0.0
2018-Jun-12 18:30N 37°48' W 122°24'0 0.0
2018-Jun-12 18:00N 37°48' W 122°24'1 1.7
2018-Jun-12 17:30N 37°49' W 122°25'0 0.0
2018-Jun-12 17:00N 37°49' W 122°25'1 2.5
2018-Jun-12 16:30N 37°48' W 122°24'815.6
2018-Jun-12 15:59N 37°40' W 122°23'714.0
2018-Jun-12 15:30N 37°46' W 122°21'3 5.1
2018-Jun-12 15:00N 37°47' W 122°18'714.0
2018-Jun-12 14:30N 37°41' W 122°21'3 6.6
2018-Jun-12 14:01N 37°44' W 122°21'4 8.8
2018-Jun-12 13:31N 37°48' W 122°17'4 7.6
2018-Jun-12 13:00N 37°45' W 122°21'5 0.6
2018-Jun-12 03:24N 37°40' W 122°23'821.4
2018-Jun-12 03:01N 37°48' W 122°20'1 1.4
2018-Jun-12 02:30N 37°48' W 122°19'816.8
2018-Jun-12 02:00N 37°40' W 122°23'714.2
2018-Jun-12 01:30N 37°44' W 122°15'714.5
2018-Jun-12 01:00N 37°48' W 122°24'5 9.3
2018-Jun-12 00:30N 37°47' W 122°18'1 1.1
2018-Jun-12 00:00N 37°48' W 122°17'714.3
2018-Jun-11 23:31N 37°41' W 122°21'2 3.7
2018-Jun-11 23:00N 37°40' W 122°23'816.0
2018-Jun-11 22:30N 37°48' W 122°24'0 0.9
2018-Jun-11 22:00N 37°48' W 122°24'0 0.0
2018-Jun-11 21:30N 37°48' W 122°24'0 0.0
2018-Jun-11 21:00N 37°48' W 122°24'0 0.0
2018-Jun-11 20:30N 37°48' W 122°24'0 0.0
2018-Jun-11 20:00N 37°48' W 122°24'0 0.0
2018-Jun-11 19:30N 37°48' W 122°24'0 0.0
2018-Jun-11 19:00N 37°48' W 122°24'0 0.0
2018-Jun-11 18:30N 37°48' W 122°24'0 0.0
2018-Jun-11 18:00N 37°48' W 122°24'1 1.7
2018-Jun-11 17:30N 37°49' W 122°25'0 0.0
2018-Jun-11 17:00N 37°49' W 122°25'3 5.7
2018-Jun-11 16:30N 37°46' W 122°22'713.1
2018-Jun-11 16:01N 37°40' W 122°23'917.2
2018-Jun-11 15:30N 37°48' W 122°18'1 2.3
2018-Jun-11 15:01N 37°48' W 122°19'816.5
2018-Jun-11 14:30N 37°40' W 122°23'817.0
2018-Jun-11 14:01N 37°48' W 122°19'1 2.2
2018-Jun-11 13:30N 37°48' W 122°17'4 7.5
2018-Jun-11 13:01N 37°45' W 122°20'510.6
2018-Jun-11 12:30N 37°40' W 122°23'  
2018-Jun-09 03:49N 37°40' W 122°23'311.1
2018-Jun-09 03:30N 37°43' W 122°21'611.5
2018-Jun-09 03:00N 37°48' W 122°17'3 5.6
2018-Jun-09 02:30N 37°48' W 122°20'816.0
2018-Jun-09 02:00N 37°40' W 122°23'712.7
2018-Jun-09 01:26N 37°44' W 122°15'716.8
2018-Jun-09 01:00N 37°48' W 122°24'5 9.3
2018-Jun-09 00:31N 37°47' W 122°18'0 0.9
2018-Jun-09 00:01N 37°48' W 122°17'815.2
2018-Jun-08 23:30N 37°41' W 122°21'1 2.9
2018-Jun-08 23:00N 37°40' W 122°23'815.8
2018-Jun-08 22:30N 37°48' W 122°24'1 1.5
2018-Jun-08 22:01N 37°48' W 122°24'1 1.1
2018-Jun-08 21:26N 37°49' W 122°25'0 0.0
2018-Jun-08 20:59N 37°49' W 122°25'0 0.0
2018-Jun-08 20:29N 37°49' W 122°25'0 0.0
2018-Jun-08 19:59N 37°49' W 122°25'0 0.0
2018-Jun-08 19:29N 37°49' W 122°25'0 0.0
2018-Jun-08 18:59N 37°49' W 122°25'0 0.0
2018-Jun-08 18:29N 37°49' W 122°25'0 0.0
2018-Jun-08 17:59N 37°49' W 122°25'0 0.0
2018-Jun-08 17:29N 37°49' W 122°25'0 0.0
2018-Jun-08 16:59N 37°49' W 122°25'1 2.9
2018-Jun-08 16:30N 37°48' W 122°23'813.5
2018-Jun-08 15:55N 37°40' W 122°23'820.2
2018-Jun-08 15:30N 37°48' W 122°19'1 2.8
2018-Jun-08 14:59N 37°47' W 122°18'816.1
2018-Jun-08 14:30N 37°40' W 122°22'5 9.5
2018-Jun-08 14:00N 37°45' W 122°21'4 8.2
2018-Jun-08 13:30N 37°48' W 122°17'3 6.6
2018-Jun-08 13:00N 37°46' W 122°21'6 0.6
2018-Jun-08 03:25N 37°40' W 122°22'820.2
2018-Jun-08 03:01N 37°48' W 122°19'1 1.2
2018-Jun-08 02:31N 37°48' W 122°20'816.7
2018-Jun-08 02:01N 37°40' W 122°23'714.2
2018-Jun-08 01:30N 37°44' W 122°15'714.5
2018-Jun-08 01:00N 37°48' W 122°24'5 9.4
2018-Jun-08 00:30N 37°47' W 122°18'0 0.7
2018-Jun-08 00:00N 37°48' W 122°17'815.0
2018-Jun-07 23:30N 37°41' W 122°21'1 2.8
2018-Jun-07 23:00N 37°40' W 122°23'815.5
2018-Jun-07 22:30N 37°48' W 122°24'0 0.0
2018-Jun-07 22:00N 37°48' W 122°24'0 0.0
2018-Jun-07 21:30N 37°48' W 122°24'0 0.0
2018-Jun-07 21:00N 37°48' W 122°24'0 0.0
2018-Jun-07 20:30N 37°48' W 122°24'0 0.0
2018-Jun-07 20:00N 37°48' W 122°24'0 0.0
2018-Jun-07 19:30N 37°48' W 122°24'0 0.0
2018-Jun-07 19:00N 37°48' W 122°24'0 0.0
2018-Jun-07 18:30N 37°48' W 122°24'0 0.0
2018-Jun-07 18:00N 37°48' W 122°24'1 2.6
2018-Jun-07 17:30N 37°49' W 122°25'0 0.0
2018-Jun-07 17:00N 37°49' W 122°25'3 6.0
2018-Jun-07 16:31N 37°46' W 122°22'613.0
2018-Jun-07 16:00N 37°40' W 122°22'816.9
2018-Jun-07 15:30N 37°48' W 122°18'0 0.4
2018-Jun-07 15:00N 37°47' W 122°18'816.4
2018-Jun-07 14:30N 37°40' W 122°23'713.6
2018-Jun-07 14:01N 37°46' W 122°21'3 6.1
2018-Jun-07 13:30N 37°48' W 122°17'4 8.2
2018-Jun-07 13:00N 37°45' W 122°21'5 9.9
2018-Jun-07 12:30N 37°40' W 122°23'0 0.0
2018-Jun-07 03:31N 37°40' W 122°23'0 2.0
2018-Jun-07 03:30N 37°40' W 122°23'816.8
2018-Jun-07 03:00N 37°48' W 122°19'1 2.2
2018-Jun-07 02:30N 37°48' W 122°20'816.7
2018-Jun-07 02:00N 37°40' W 122°23'714.4
2018-Jun-07 01:30N 37°44' W 122°15'714.6
2018-Jun-07 01:00N 37°48' W 122°24'5 9.3
2018-Jun-07 00:30N 37°47' W 122°18'1 1.3
2018-Jun-07 00:01N 37°48' W 122°17'815.5
2018-Jun-06 23:31N 37°41' W 122°22'1 2.6
2018-Jun-06 23:00N 37°40' W 122°23'815.8
2018-Jun-06 22:30N 37°48' W 122°24'0 0.9
2018-Jun-06 22:00N 37°48' W 122°24'0 0.0
2018-Jun-06 21:26N 37°48' W 122°24'0 0.0
2018-Jun-06 20:59N 37°48' W 122°24'0 0.0
2018-Jun-06 20:26N 37°48' W 122°24'0 0.0
2018-Jun-06 19:56N 37°48' W 122°24'0 0.0
2018-Jun-06 19:29N 37°48' W 122°24'0 0.0
2018-Jun-06 18:56N 37°48' W 122°24'0 0.0
2018-Jun-06 18:29N 37°48' W 122°24'0 0.0
2018-Jun-06 17:53N 37°48' W 122°24'0 0.0
2018-Jun-06 17:29N 37°48' W 122°24'0 0.8
2018-Jun-06 17:00N 37°48' W 122°24'1 1.5
2018-Jun-06 16:28N 37°49' W 122°25'0 0.3
2018-Jun-06 16:00N 37°49' W 122°25'915.2
2018-Jun-06 15:25N 37°40' W 122°23'717.0
2018-Jun-06 15:00N 37°47' W 122°21'3 4.7
2018-Jun-06 14:28N 37°47' W 122°18'4 9.3
2018-Jun-06 14:00N 37°44' W 122°21'4 0.4
2018-Jun-06 03:29N 37°40' W 122°23'817.7
2018-Jun-06 03:01N 37°48' W 122°20'1 1.4
2018-Jun-06 02:30N 37°48' W 122°19'816.7
2018-Jun-06 02:00N 37°40' W 122°23'714.4
2018-Jun-06 01:30N 37°44' W 122°15'714.6
2018-Jun-06 01:00N 37°48' W 122°24'5 9.3
2018-Jun-06 00:30N 37°47' W 122°18'0 0.7
2018-Jun-06 00:00N 37°48' W 122°17'815.2
2018-Jun-05 23:30N 37°41' W 122°21'1 2.7
2018-Jun-05 23:00N 37°40' W 122°23'815.1
2018-Jun-05 22:29N 37°48' W 122°24'0 0.9
2018-Jun-05 22:00N 37°48' W 122°24'  
Track history (hours):
 
Tides and Currents Weather Stations Pressure Air Temp Water Temp Dewpoint Dewpoint Depression Visibility Wind Speed Wind Dir Waves Ship Positions

Scorpio

Owner: San Francisco Bay Area Water Emergency Transportation Authority, San Francisco, CA. More information available from US FCC via Universal Licensing System and Coast Guard Vessel Documentation Center.

Last reported at 2018-Jun-15 18:47 UTC. Time now 2018-Jun-19 21:42 UTC.
Position N 37°46' W 122°18'.

Length 35 m.

Type: Ship (hazmat cat A). MMSI: 367425520.

Date/timePositionNaut miles runAvg speedWind from/ knotsBaromVisibWave heightAir tempDewpointWater temp
2018-Jun-15 18:47N 37°46' W 122°18'0 0.1
2018-Jun-15 18:30N 37°46' W 122°18'611.5
2018-Jun-15 18:00N 37°49' W 122°25'0 0.0
2018-Jun-15 17:30N 37°49' W 122°25'0 0.0
2018-Jun-15 17:00N 37°49' W 122°25'1 2.4
2018-Jun-15 16:30N 37°48' W 122°23'1222.7
2018-Jun-15 15:58N 38°00' W 122°24'913.4
2018-Jun-15 15:19N 38°06' W 122°16'412.2
2018-Jun-15 15:00N 38°03' W 122°19'1021.1
2018-Jun-15 14:31N 37°54' W 122°25'611.6
2018-Jun-15 14:00N 37°48' W 122°24'1322.8
2018-Jun-15 13:26N 38°01' W 122°22'7 9.7
2018-Jun-15 12:43N 38°06' W 122°16'0 0.0
2018-Jun-14 19:38N 38°06' W 122°16'1 9.3
2018-Jun-14 19:30N 38°05' W 122°15'1121.7
2018-Jun-14 19:00N 37°58' W 122°26'918.1
2018-Jun-14 18:29N 37°49' W 122°25'1 2.0
2018-Jun-14 18:01N 37°49' W 122°24'1219.4
2018-Jun-14 17:24N 38°01' W 122°23'818.1
2018-Jun-14 16:59N 38°05' W 122°15'1 0.1
2018-Jun-14 01:45N 38°06' W 122°16'1 3.2
2018-Jun-14 01:28N 38°05' W 122°15'916.9
2018-Jun-14 00:58N 38°00' W 122°24'1022.1
2018-Jun-14 00:30N 37°50' W 122°24'1 2.9
2018-Jun-14 00:00N 37°51' W 122°25'1221.6
2018-Jun-13 23:27N 38°03' W 122°20'5 5.5
2018-Jun-13 22:37N 38°06' W 122°16'1 8.8
2018-Jun-13 22:30N 38°05' W 122°15'1120.8
2018-Jun-13 21:58N 37°58' W 122°26'1018.5
2018-Jun-13 21:25N 37°48' W 122°24'0 0.0
2018-Jun-13 20:55N 37°48' W 122°24'0 0.0
2018-Jun-13 20:28N 37°48' W 122°24'612.1
2018-Jun-13 20:00N 37°53' W 122°26'1019.1
2018-Jun-13 19:29N 38°02' W 122°20'5 3.8
2018-Jun-13 18:11N 38°06' W 122°16'210.0
2018-Jun-13 17:57N 38°04' W 122°16'1023.4
2018-Jun-13 17:30N 37°57' W 122°26'917.6
2018-Jun-13 17:00N 37°48' W 122°24'3 5.9
2018-Jun-13 16:30N 37°46' W 122°22'611.4
2018-Jun-13 16:00N 37°40' W 122°23'917.4
2018-Jun-13 15:30N 37°48' W 122°18'1 2.1
2018-Jun-13 15:00N 37°48' W 122°19'814.7
2018-Jun-13 14:26N 37°40' W 122°23'614.7
2018-Jun-13 14:00N 37°46' W 122°21'3 6.1
2018-Jun-13 13:30N 37°48' W 122°17'510.4
2018-Jun-13 13:00N 37°43' W 122°21'4 5.8
2018-Jun-13 12:23N 37°40' W 122°23'0 0.0
2018-Jun-13 03:26N 37°40' W 122°22'819.8
2018-Jun-13 03:00N 37°48' W 122°19'1 1.9
2018-Jun-13 02:31N 37°48' W 122°20'816.6
2018-Jun-13 02:00N 37°40' W 122°23'714.0
2018-Jun-13 01:29N 37°44' W 122°15'715.1
2018-Jun-13 01:00N 37°48' W 122°24'5 9.2
2018-Jun-13 00:30N 37°47' W 122°18'1 1.4
2018-Jun-13 00:00N 37°48' W 122°17'815.2
2018-Jun-12 23:30N 37°41' W 122°21'2 3.0
2018-Jun-12 23:00N 37°40' W 122°23'816.1
2018-Jun-12 22:30N 37°48' W 122°24'0 0.9
2018-Jun-12 22:00N 37°48' W 122°24'0 0.0
2018-Jun-12 21:30N 37°48' W 122°24'0 0.0
2018-Jun-12 21:00N 37°48' W 122°24'0 0.0
2018-Jun-12 20:30N 37°48' W 122°24'0 0.0
2018-Jun-12 20:00N 37°48' W 122°24'0 0.0
2018-Jun-12 19:29N 37°48' W 122°24'0 0.0
2018-Jun-12 19:00N 37°48' W 122°24'0 0.0
2018-Jun-12 18:30N 37°48' W 122°24'0 0.0
2018-Jun-12 18:00N 37°48' W 122°24'1 1.7
2018-Jun-12 17:30N 37°49' W 122°25'0 0.0
2018-Jun-12 17:00N 37°49' W 122°25'1 2.5
2018-Jun-12 16:30N 37°48' W 122°24'815.6
2018-Jun-12 15:59N 37°40' W 122°23'714.0
2018-Jun-12 15:30N 37°46' W 122°21'3 5.1
2018-Jun-12 15:00N 37°47' W 122°18'714.0
2018-Jun-12 14:30N 37°41' W 122°21'3 6.6
2018-Jun-12 14:01N 37°44' W 122°21'4 8.8
2018-Jun-12 13:31N 37°48' W 122°17'4 7.6
2018-Jun-12 13:00N 37°45' W 122°21'5 0.6
2018-Jun-12 03:24N 37°40' W 122°23'821.4
2018-Jun-12 03:01N 37°48' W 122°20'1 1.4
2018-Jun-12 02:30N 37°48' W 122°19'816.8
2018-Jun-12 02:00N 37°40' W 122°23'714.2
2018-Jun-12 01:30N 37°44' W 122°15'714.5
2018-Jun-12 01:00N 37°48' W 122°24'5 9.3
2018-Jun-12 00:30N 37°47' W 122°18'1 1.1
2018-Jun-12 00:00N 37°48' W 122°17'714.3
2018-Jun-11 23:31N 37°41' W 122°21'2 3.7
2018-Jun-11 23:00N 37°40' W 122°23'816.0
2018-Jun-11 22:30N 37°48' W 122°24'0 0.9
2018-Jun-11 22:00N 37°48' W 122°24'0 0.0
2018-Jun-11 21:30N 37°48' W 122°24'0 0.0
2018-Jun-11 21:00N 37°48' W 122°24'0 0.0
2018-Jun-11 20:30N 37°48' W 122°24'0 0.0
2018-Jun-11 20:00N 37°48' W 122°24'0 0.0
2018-Jun-11 19:30N 37°48' W 122°24'0 0.0
2018-Jun-11 19:00N 37°48' W 122°24'0 0.0
2018-Jun-11 18:30N 37°48' W 122°24'0 0.0
2018-Jun-11 18:00N 37°48' W 122°24'1 1.7
2018-Jun-11 17:30N 37°49' W 122°25'0 0.0
2018-Jun-11 17:00N 37°49' W 122°25'3 5.7
2018-Jun-11 16:30N 37°46' W 122°22'713.1
2018-Jun-11 16:01N 37°40' W 122°23'917.2
2018-Jun-11 15:30N 37°48' W 122°18'1 2.3
2018-Jun-11 15:01N 37°48' W 122°19'816.5
2018-Jun-11 14:30N 37°40' W 122°23'817.0
2018-Jun-11 14:01N 37°48' W 122°19'1 2.2
2018-Jun-11 13:30N 37°48' W 122°17'4 7.5
2018-Jun-11 13:01N 37°45' W 122°20'510.6
2018-Jun-11 12:30N 37°40' W 122°23'  
2018-Jun-09 03:49N 37°40' W 122°23'311.1
2018-Jun-09 03:30N 37°43' W 122°21'611.5
2018-Jun-09 03:00N 37°48' W 122°17'3 5.6
2018-Jun-09 02:30N 37°48' W 122°20'816.0
2018-Jun-09 02:00N 37°40' W 122°23'712.7
2018-Jun-09 01:26N 37°44' W 122°15'716.8
2018-Jun-09 01:00N 37°48' W 122°24'5 9.3
2018-Jun-09 00:31N 37°47' W 122°18'0 0.9
2018-Jun-09 00:01N 37°48' W 122°17'815.2
2018-Jun-08 23:30N 37°41' W 122°21'1 2.9
2018-Jun-08 23:00N 37°40' W 122°23'815.8
2018-Jun-08 22:30N 37°48' W 122°24'1 1.5
2018-Jun-08 22:01N 37°48' W 122°24'1 1.1
2018-Jun-08 21:26N 37°49' W 122°25'0 0.0
2018-Jun-08 20:59N 37°49' W 122°25'0 0.0
2018-Jun-08 20:29N 37°49' W 122°25'0 0.0
2018-Jun-08 19:59N 37°49' W 122°25'0 0.0
2018-Jun-08 19:29N 37°49' W 122°25'0 0.0
2018-Jun-08 18:59N 37°49' W 122°25'0 0.0
2018-Jun-08 18:29N 37°49' W 122°25'0 0.0
2018-Jun-08 17:59N 37°49' W 122°25'0 0.0
2018-Jun-08 17:29N 37°49' W 122°25'0 0.0
2018-Jun-08 16:59N 37°49' W 122°25'1 2.9
2018-Jun-08 16:30N 37°48' W 122°23'813.5
2018-Jun-08 15:55N 37°40' W 122°23'820.2
2018-Jun-08 15:30N 37°48' W 122°19'1 2.8
2018-Jun-08 14:59N 37°47' W 122°18'816.1
2018-Jun-08 14:30N 37°40' W 122°22'5 9.5
2018-Jun-08 14:00N 37°45' W 122°21'4 8.2
2018-Jun-08 13:30N 37°48' W 122°17'3 6.6
2018-Jun-08 13:00N 37°46' W 122°21'6 0.6
2018-Jun-08 03:25N 37°40' W 122°22'820.2
2018-Jun-08 03:01N 37°48' W 122°19'1 1.2
2018-Jun-08 02:31N 37°48' W 122°20'816.7
2018-Jun-08 02:01N 37°40' W 122°23'714.2
2018-Jun-08 01:30N 37°44' W 122°15'714.5
2018-Jun-08 01:00N 37°48' W 122°24'5 9.4
2018-Jun-08 00:30N 37°47' W 122°18'0 0.7
2018-Jun-08 00:00N 37°48' W 122°17'815.0
2018-Jun-07 23:30N 37°41' W 122°21'1 2.8
2018-Jun-07 23:00N 37°40' W 122°23'815.5
2018-Jun-07 22:30N 37°48' W 122°24'0 0.0
2018-Jun-07 22:00N 37°48' W 122°24'0 0.0
2018-Jun-07 21:30N 37°48' W 122°24'0 0.0
2018-Jun-07 21:00N 37°48' W 122°24'0 0.0
2018-Jun-07 20:30N 37°48' W 122°24'0 0.0
2018-Jun-07 20:00N 37°48' W 122°24'0 0.0
2018-Jun-07 19:30N 37°48' W 122°24'0 0.0
2018-Jun-07 19:00N 37°48' W 122°24'0 0.0
2018-Jun-07 18:30N 37°48' W 122°24'0 0.0
2018-Jun-07 18:00N 37°48' W 122°24'1 2.6
2018-Jun-07 17:30N 37°49' W 122°25'0 0.0
2018-Jun-07 17:00N 37°49' W 122°25'3 6.0
2018-Jun-07 16:31N 37°46' W 122°22'613.0
2018-Jun-07 16:00N 37°40' W 122°22'816.9
2018-Jun-07 15:30N 37°48' W 122°18'0 0.4
2018-Jun-07 15:00N 37°47' W 122°18'816.4
2018-Jun-07 14:30N 37°40' W 122°23'713.6
2018-Jun-07 14:01N 37°46' W 122°21'3 6.1
2018-Jun-07 13:30N 37°48' W 122°17'4 8.2
2018-Jun-07 13:00N 37°45' W 122°21'5 9.9
2018-Jun-07 12:30N 37°40' W 122°23'0 0.0
2018-Jun-07 03:31N 37°40' W 122°23'0 2.0
2018-Jun-07 03:30N 37°40' W 122°23'816.8
2018-Jun-07 03:00N 37°48' W 122°19'1 2.2
2018-Jun-07 02:30N 37°48' W 122°20'816.7
2018-Jun-07 02:00N 37°40' W 122°23'714.4
2018-Jun-07 01:30N 37°44' W 122°15'714.6
2018-Jun-07 01:00N 37°48' W 122°24'5 9.3
2018-Jun-07 00:30N 37°47' W 122°18'1 1.3
2018-Jun-07 00:01N 37°48' W 122°17'815.5
2018-Jun-06 23:31N 37°41' W 122°22'1 2.6
2018-Jun-06 23:00N 37°40' W 122°23'815.8
2018-Jun-06 22:30N 37°48' W 122°24'0 0.9
2018-Jun-06 22:00N 37°48' W 122°24'0 0.0
2018-Jun-06 21:26N 37°48' W 122°24'0 0.0
2018-Jun-06 20:59N 37°48' W 122°24'0 0.0
2018-Jun-06 20:26N 37°48' W 122°24'0 0.0
2018-Jun-06 19:56N 37°48' W 122°24'0 0.0
2018-Jun-06 19:29N 37°48' W 122°24'0 0.0
2018-Jun-06 18:56N 37°48' W 122°24'0 0.0
2018-Jun-06 18:29N 37°48' W 122°24'0 0.0
2018-Jun-06 17:53N 37°48' W 122°24'0 0.0
2018-Jun-06 17:29N 37°48' W 122°24'0 0.8
2018-Jun-06 17:00N 37°48' W 122°24'1 1.5
2018-Jun-06 16:28N 37°49' W 122°25'0 0.3
2018-Jun-06 16:00N 37°49' W 122°25'915.2
2018-Jun-06 15:25N 37°40' W 122°23'717.0
2018-Jun-06 15:00N 37°47' W 122°21'3 4.7
2018-Jun-06 14:28N 37°47' W 122°18'4 9.3
2018-Jun-06 14:00N 37°44' W 122°21'4 0.4
2018-Jun-06 03:29N 37°40' W 122°23'817.7
2018-Jun-06 03:01N 37°48' W 122°20'1 1.4
2018-Jun-06 02:30N 37°48' W 122°19'816.7
2018-Jun-06 02:00N 37°40' W 122°23'714.4
2018-Jun-06 01:30N 37°44' W 122°15'714.6
2018-Jun-06 01:00N 37°48' W 122°24'5 9.3
2018-Jun-06 00:30N 37°47' W 122°18'0 0.7
2018-Jun-06 00:00N 37°48' W 122°17'815.2
2018-Jun-05 23:30N 37°41' W 122°21'1 2.7
2018-Jun-05 23:00N 37°40' W 122°23'815.1
2018-Jun-05 22:29N 37°48' W 122°24'0 0.9
2018-Jun-05 22:00N 37°48' W 122°24'  

Dump ship's entire track history